Time;durP1;ratioP1;P1;durP2;ratioP2;P2;SDS_P1;SDS_P2;PMS_P1;PMS_P2;Temp;Humidity;BMP_temperature;BMP_pressure;BME280_temperature;BME280_humidity;BME280_pressure;Samples;Min_cycle;Max_cycle;Signal;HPM_P1;HPM_P2
2021/07/05 00:02:12;;;;;;;19.25;12.27;;;16.00;99.90;;;;;;4993337;28;20093;-78
2021/07/05 00:04:40;;;;;;;17.35;12.32;;;16.00;99.90;;;;;;4993767;28;20133;-76
2021/07/05 00:07:07;;;;;;;20.35;12.05;;;16.00;99.90;;;;;;4993262;28;20046;-77
2021/07/05 00:09:35;;;;;;;19.27;11.60;;;16.00;99.90;;;;;;4993426;28;20057;-76
2021/07/05 00:12:03;;;;;;;20.27;10.63;;;16.00;99.90;;;;;;4993642;28;20133;-77
2021/07/05 00:14:30;;;;;;;16.75;10.98;;;16.00;99.90;;;;;;4993788;28;20517;-77
2021/07/05 00:16:57;;;;;;;21.88;11.25;;;16.00;99.90;;;;;;4993218;28;20089;-77
2021/07/05 00:19:24;;;;;;;14.85;10.63;;;15.90;99.90;;;;;;4993109;28;20078;-77
2021/07/05 00:21:53;;;;;;;18.92;11.55;;;15.80;99.90;;;;;;4992881;28;20050;-77
2021/07/05 00:24:20;;;;;;;20.00;10.80;;;15.80;99.90;;;;;;4992579;28;20133;-77
2021/07/05 00:26:47;;;;;;;24.63;11.63;;;15.80;99.90;;;;;;4992988;28;20141;-76
2021/07/05 00:29:14;;;;;;;19.25;10.77;;;15.80;99.90;;;;;;4993280;28;20464;-76
2021/07/05 00:31:41;;;;;;;17.30;10.13;;;15.80;99.90;;;;;;4992744;28;20050;-77
2021/07/05 00:34:08;;;;;;;18.80;10.65;;;15.80;99.90;;;;;;4992631;28;20085;-77
2021/07/05 00:36:35;;;;;;;23.45;9.93;;;15.80;99.90;;;;;;4993131;28;20221;-78
2021/07/05 00:39:04;;;;;;;18.95;10.02;;;15.70;99.90;;;;;;4992815;28;20419;-77
2021/07/05 00:41:31;;;;;;;16.45;11.07;;;15.70;99.90;;;;;;4992831;28;20133;-77
2021/07/05 00:43:58;;;;;;;19.20;10.05;;;15.70;99.90;;;;;;4993135;28;20137;-77
2021/07/05 00:46:25;;;;;;;16.45;10.13;;;15.60;99.90;;;;;;4993192;28;20046;-77
2021/07/05 00:48:53;;;;;;;17.30;9.90;;;15.60;99.90;;;;;;4992908;28;20180;-76
2021/07/05 00:51:20;;;;;;;20.08;10.82;;;15.60;99.90;;;;;;4992432;28;20086;-77
2021/07/05 00:53:48;;;;;;;18.15;10.55;;;15.60;99.90;;;;;;4992158;28;20097;-78
2021/07/05 00:56:17;;;;;;;16.85;10.68;;;15.60;99.90;;;;;;4992621;28;20137;-78
2021/07/05 00:58:44;;;;;;;20.08;11.07;;;15.60;99.90;;;;;;4993144;28;20050;-78
2021/07/05 01:01:11;;;;;;;21.65;10.10;;;15.60;99.90;;;;;;4992719;28;20478;-78
2021/07/05 01:03:38;;;;;;;24.40;11.00;;;15.60;99.90;;;;;;4992497;28;20050;-80
2021/07/05 01:06:05;;;;;;;16.60;9.82;;;15.60;99.90;;;;;;4992985;28;20054;-78
2021/07/05 01:08:32;;;;;;;18.98;10.60;;;15.60;99.90;;;;;;4992408;28;20086;-77
2021/07/05 01:10:59;;;;;;;27.20;10.77;;;15.60;99.90;;;;;;4992263;28;20133;-79
2021/07/05 01:13:27;;;;;;;23.08;10.32;;;15.60;99.90;;;;;;4992128;28;20050;-75
2021/07/05 01:15:54;;;;;;;22.65;9.90;;;15.70;99.90;;;;;;4992396;28;20089;-77
2021/07/05 01:18:21;;;;;;;37.88;11.05;;;15.70;99.90;;;;;;4992575;28;20046;-77
2021/07/05 01:20:48;;;;;;;27.45;9.25;;;15.70;99.90;;;;;;4992267;28;20050;-76
2021/07/05 01:23:16;;;;;;;29.10;11.90;;;15.70;99.90;;;;;;4992092;28;20056;-77
2021/07/05 01:25:43;;;;;;;30.45;10.02;;;15.70;99.90;;;;;;4992653;28;20129;-77
2021/07/05 01:28:11;;;;;;;37.08;11.32;;;15.70;99.90;;;;;;4992626;28;20141;-77
2021/07/05 01:30:40;;;;;;;26.75;10.23;;;15.70;99.90;;;;;;4992395;28;20046;-78
2021/07/05 01:33:08;;;;;;;28.42;10.13;;;15.70;99.90;;;;;;4991551;28;20050;-76
2021/07/05 01:35:36;;;;;;;25.60;10.65;;;15.70;99.90;;;;;;4995093;28;20054;-78
2021/07/05 01:38:10;;;;;;;31.90;10.45;;;15.70;99.90;;;;;;4995647;28;20052;-78
2021/07/05 01:40:38;;;;;;;26.55;10.15;;;15.70;99.90;;;;;;4995947;28;20210;-78
2021/07/05 01:43:06;;;;;;;23.38;10.57;;;15.70;99.90;;;;;;4995883;28;20399;-78
2021/07/05 01:45:34;;;;;;;23.85;9.98;;;15.70;99.90;;;;;;4995686;28;20137;-78
2021/07/05 01:48:01;;;;;;;20.08;9.98;;;15.80;99.90;;;;;;4995753;28;20105;-78
2021/07/05 01:50:29;;;;;;;30.38;10.30;;;15.80;99.90;;;;;;4995506;28;20050;-77
2021/07/05 01:52:57;;;;;;;32.47;10.05;;;15.70;99.90;;;;;;4995268;28;20505;-77
2021/07/05 01:55:30;;;;;;;24.13;9.07;;;15.70;99.90;;;;;;4995679;28;20054;-77
2021/07/05 01:58:00;;;;;;;21.77;8.60;;;15.80;99.90;;;;;;4995520;28;20100;-79
2021/07/05 02:00:28;;;;;;;22.23;10.82;;;15.80;99.90;;;;;;4995389;28;20148;-79
2021/07/05 02:02:55;;;;;;;27.52;8.82;;;15.90;99.90;;;;;;4995149;28;20046;-78
2021/07/05 02:05:22;;;;;;;23.77;8.93;;;15.90;99.90;;;;;;4995110;28;20129;-77
2021/07/05 02:07:50;;;;;;;26.05;8.88;;;16.00;99.90;;;;;;4995555;28;20489;-79
2021/07/05 02:10:20;;;;;;;29.30;9.52;;;16.00;99.90;;;;;;4995449;28;20054;-77
2021/07/05 02:12:47;;;;;;;20.63;8.20;;;16.00;99.90;;;;;;4995447;28;20081;-78
2021/07/05 02:15:16;;;;;;;23.08;8.98;;;16.10;99.90;;;;;;4995191;28;20050;-78
2021/07/05 02:17:45;;;;;;;26.70;8.77;;;16.10;99.90;;;;;;4995413;28;20057;-79
2021/07/05 02:20:15;;;;;;;17.27;7.97;;;16.00;99.90;;;;;;4995189;28;20129;-80
2021/07/05 02:22:43;;;;;;;18.67;7.85;;;16.00;99.90;;;;;;4995118;28;20109;-78
2021/07/05 02:25:15;;;;;;;19.73;7.85;;;16.00;99.90;;;;;;4995203;28;20138;-78
2021/07/05 02:27:43;;;;;;;23.50;8.77;;;16.00;99.90;;;;;;4995063;28;20089;-79
2021/07/05 02:30:13;;;;;;;23.95;8.25;;;16.00;99.90;;;;;;4995210;28;20133;-79
2021/07/05 02:32:41;;;;;;;18.27;8.32;;;16.00;99.90;;;;;;4996533;28;20089;-77
2021/07/05 02:35:11;;;;;;;18.55;8.50;;;16.00;99.90;;;;;;4995807;28;20458;-78
2021/07/05 02:37:39;;;;;;;22.42;8.80;;;16.00;99.90;;;;;;4995491;28;20054;-78
2021/07/05 02:40:08;;;;;;;24.90;8.43;;;16.00;99.90;;;;;;4994981;28;20146;-77
2021/07/05 02:42:35;;;;;;;24.90;8.65;;;16.00;99.90;;;;;;4994815;28;20050;-78
2021/07/05 02:45:03;;;;;;;20.50;8.18;;;16.00;99.90;;;;;;4994589;28;20046;-78
2021/07/05 02:47:30;;;;;;;14.55;8.00;;;16.00;99.90;;;;;;4993839;28;20050;-78
2021/07/05 02:49:58;;;;;;;17.13;8.40;;;16.10;99.90;;;;;;4995178;28;20257;-76
2021/07/05 02:52:25;;;;;;;19.02;7.63;;;16.00;99.90;;;;;;4994655;28;20052;-78
2021/07/05 02:54:52;;;;;;;17.95;7.97;;;16.00;99.90;;;;;;4994365;28;20129;-79
2021/07/05 02:57:30;;;;;;;20.17;8.30;;;16.00;99.90;;;;;;4994422;28;20554;-78
2021/07/05 03:00:01;;;;;;;16.65;7.65;;;16.00;99.90;;;;;;4994862;28;20050;-77
2021/07/05 03:02:30;;;;;;;20.55;8.55;;;16.00;99.90;;;;;;4994384;28;20051;-79
2021/07/05 03:04:59;;;;;;;23.25;7.63;;;16.10;99.90;;;;;;4994427;28;20447;-78
2021/07/05 03:07:26;;;;;;;13.88;7.35;;;16.10;99.90;;;;;;4994825;28;20081;-79
2021/07/05 03:09:53;;;;;;;11.65;7.35;;;16.00;99.90;;;;;;4995054;28;20430;-79
2021/07/05 03:12:20;;;;;;;17.90;7.40;;;16.10;99.90;;;;;;4994911;28;20133;-79
2021/07/05 03:14:47;;;;;;;17.00;7.85;;;16.10;99.90;;;;;;4994614;28;20132;-78
2021/07/05 03:17:14;;;;;;;14.55;7.00;;;16.10;99.90;;;;;;4994706;28;20086;-79
2021/07/05 03:19:41;;;;;;;14.98;7.15;;;16.10;99.90;;;;;;4994514;28;20069;-79
2021/07/05 03:22:10;;;;;;;16.95;7.57;;;16.10;99.90;;;;;;4995789;28;20133;-79
2021/07/05 03:24:37;;;;;;;17.20;7.35;;;16.10;99.90;;;;;;4994845;28;20077;-78
2021/07/05 03:27:04;;;;;;;21.33;8.30;;;16.20;99.90;;;;;;4996803;28;20129;-78
2021/07/05 03:29:31;;;;;;;17.50;7.43;;;16.20;99.90;;;;;;5002343;28;20121;-79
2021/07/05 03:31:59;;;;;;;15.98;8.25;;;16.20;99.90;;;;;;5004642;28;20077;-79
2021/07/05 03:34:25;;;;;;;20.73;7.28;;;16.30;99.90;;;;;;5002727;28;20110;-78
2021/07/05 03:36:52;;;;;;;13.50;6.90;;;16.30;99.90;;;;;;5003463;28;20089;-78
2021/07/05 03:39:21;;;;;;;16.48;7.40;;;16.30;99.90;;;;;;5003473;28;20399;-81
2021/07/05 03:45:38;;;;;;;17.88;6.78;;;16.40;99.90;;;;;;4950350;28;20051;-78
2021/07/05 03:48:06;;;;;;;15.43;7.25;;;16.50;99.90;;;;;;4972704;28;20063;-77
2021/07/05 03:50:37;;;;;;;22.52;7.97;;;16.50;99.90;;;;;;4972919;28;20047;-78
2021/07/05 03:53:13;;;;;;;20.98;7.95;;;16.60;99.90;;;;;;4973390;28;20047;-77
2021/07/05 03:55:41;;;;;;;29.65;8.40;;;16.60;99.90;;;;;;5042636;23;20137;-79
2021/07/05 03:58:08;;;;;;;14.85;7.53;;;16.70;99.90;;;;;;5016949;28;20438;-81
2021/07/05 04:00:38;;;;;;;11.35;7.35;;;16.70;99.90;;;;;;5017701;28;20045;-81
2021/07/05 04:03:05;;;;;;;9.38;4.82;;;16.60;99.90;;;;;;5016950;28;20482;-80
2021/07/05 04:05:31;;;;;;;8.45;4.43;;;16.40;99.90;;;;;;5016845;28;20060;-80
2021/07/05 04:07:59;;;;;;;9.50;4.47;;;16.30;99.90;;;;;;5015097;28;20140;-80
2021/07/05 04:10:26;;;;;;;8.75;4.43;;;16.10;99.90;;;;;;5019292;28;20066;-80
2021/07/05 04:12:54;;;;;;;7.13;3.90;;;16.10;99.90;;;;;;5020303;28;20217;-82
2021/07/05 04:15:21;;;;;;;7.75;4.75;;;16.00;99.90;;;;;;5021376;28;20134;-81
2021/07/05 04:17:48;;;;;;;6.68;3.90;;;15.90;99.90;;;;;;5020786;28;20105;-81
2021/07/05 04:20:17;;;;;;;11.77;4.80;;;15.80;99.90;;;;;;5020992;28;20081;-81
2021/07/05 04:22:46;;;;;;;8.18;3.80;;;15.80;99.90;;;;;;5021354;28;20491;-81
2021/07/05 04:25:14;;;;;;;5.13;3.45;;;15.70;99.90;;;;;;5019924;28;20078;-80
2021/07/05 04:27:41;;;;;;;6.28;3.60;;;15.70;99.90;;;;;;5019825;28;20103;-80
2021/07/05 04:30:11;;;;;;;6.35;4.07;;;15.70;99.90;;;;;;5020299;28;20117;-80
2021/07/05 04:32:38;;;;;;;5.72;3.65;;;15.80;99.90;;;;;;5020463;28;20137;-82
2021/07/05 04:35:07;;;;;;;5.05;3.58;;;15.80;99.90;;;;;;5019642;28;20137;-82
2021/07/05 04:37:34;;;;;;;6.50;3.80;;;15.70;99.90;;;;;;5020632;28;20081;-82
2021/07/05 04:40:01;;;;;;;4.70;3.38;;;15.70;99.90;;;;;;5019919;28;20121;-82
2021/07/05 04:42:28;;;;;;;6.55;3.60;;;15.80;99.90;;;;;;5020796;28;20077;-81
2021/07/05 04:44:55;;;;;;;6.38;3.80;;;15.80;99.90;;;;;;5019937;28;20133;-81
2021/07/05 04:47:23;;;;;;;5.28;3.78;;;15.80;99.90;;;;;;5018791;28;20109;-80
2021/07/05 04:49:50;;;;;;;6.18;4.03;;;15.80;99.90;;;;;;5019212;28;20120;-82
2021/07/05 04:52:17;;;;;;;6.20;4.32;;;15.80;99.90;;;;;;5021475;28;20058;-81
2021/07/05 04:54:44;;;;;;;5.47;4.30;;;15.80;99.90;;;;;;5019370;28;20129;-81
2021/07/05 04:57:11;;;;;;;7.57;5.22;;;15.70;99.90;;;;;;5020072;28;20085;-81
2021/07/05 04:59:38;;;;;;;7.93;5.18;;;15.70;99.90;;;;;;5019411;28;20062;-82
2021/07/05 05:02:05;;;;;;;7.28;5.60;;;15.80;99.90;;;;;;5018505;28;20109;-81
2021/07/05 05:04:34;;;;;;;7.00;5.45;;;15.80;99.90;;;;;;5020137;28;20113;-80
2021/07/05 05:07:01;;;;;;;8.75;6.18;;;15.90;99.90;;;;;;5021075;28;20109;-82
2021/07/05 05:09:28;;;;;;;9.80;6.75;;;15.90;99.90;;;;;;5020015;28;20505;-83
2021/07/05 05:11:55;;;;;;;8.55;6.32;;;16.00;99.90;;;;;;5019885;28;20133;-83
2021/07/05 05:14:22;;;;;;;8.95;6.82;;;16.10;99.90;;;;;;5019575;28;20061;-83
2021/07/05 05:16:49;;;;;;;8.77;6.90;;;16.10;99.90;;;;;;5018911;28;20132;-84
2021/07/05 05:19:16;;;;;;;11.00;7.53;;;16.20;99.90;;;;;;5019397;28;20085;-82
2021/07/05 05:21:45;;;;;;;10.75;7.53;;;16.20;99.90;;;;;;5020524;28;20134;-82
2021/07/05 05:24:12;;;;;;;13.35;8.27;;;16.30;99.90;;;;;;5021468;28;20578;-82
2021/07/05 05:26:39;;;;;;;11.30;7.22;;;16.30;99.90;;;;;;5021164;28;20070;-81
2021/07/05 05:29:06;;;;;;;10.80;5.97;;;16.40;99.90;;;;;;5019842;28;20089;-84
2021/07/05 05:31:34;;;;;;;8.95;5.82;;;16.30;99.90;;;;;;5019939;28;20110;-81
2021/07/05 05:34:01;;;;;;;7.18;4.88;;;16.40;99.90;;;;;;5019911;28;20073;-82
2021/07/05 05:36:28;;;;;;;9.82;5.00;;;16.30;99.90;;;;;;5020511;28;20080;-81
2021/07/05 05:38:56;;;;;;;6.40;5.35;;;16.40;99.90;;;;;;5020136;28;20429;-83
2021/07/05 05:41:24;;;;;;;11.48;7.00;;;16.50;99.90;;;;;;5020793;28;20085;-81
2021/07/05 05:43:50;;;;;;;9.10;7.32;;;16.50;99.90;;;;;;5020501;28;20077;-81
2021/07/05 05:46:17;;;;;;;13.02;7.63;;;16.50;99.90;;;;;;5019714;28;20092;-82
2021/07/05 05:48:46;;;;;;;8.82;7.03;;;16.60;99.90;;;;;;5019647;28;20084;-81
2021/07/05 05:51:13;;;;;;;7.70;5.63;;;16.60;99.90;;;;;;5019903;28;20050;-81
2021/07/05 05:53:39;;;;;;;5.95;5.15;;;16.40;99.90;;;;;;5017021;28;20045;-81
2021/07/05 05:56:08;;;;;;;8.10;4.50;;;16.40;99.90;;;;;;5018574;28;20081;-81
2021/07/05 05:58:39;;;;;;;7.30;5.00;;;16.50;99.90;;;;;;5018768;28;20057;-80
2021/07/05 06:01:06;;;;;;;7.20;5.22;;;16.60;99.90;;;;;;5018379;28;20046;-81
2021/07/05 06:03:33;;;;;;;7.75;6.07;;;16.70;99.90;;;;;;5018569;28;20065;-81
2021/07/05 06:06:00;;;;;;;10.85;6.90;;;16.70;99.90;;;;;;5018681;28;20105;-81
2021/07/05 06:08:27;;;;;;;7.93;6.55;;;16.80;99.90;;;;;;5015981;28;20058;-78
2021/07/05 06:10:54;;;;;;;8.80;6.03;;;16.90;99.90;;;;;;5017875;28;20049;-78
2021/07/05 06:13:23;;;;;;;12.63;5.72;;;17.00;99.90;;;;;;5018482;28;20050;-81
2021/07/05 06:15:49;;;;;;;6.25;4.55;;;17.10;99.90;;;;;;5000706;28;20150;-81
2021/07/05 06:18:16;;;;;;;5.32;4.03;;;17.20;99.90;;;;;;5008504;28;20065;-80
2021/07/05 06:20:43;;;;;;;5.25;3.78;;;17.40;99.90;;;;;;5008484;28;20130;-82
2021/07/05 06:23:18;;;;;;;6.43;3.67;;;17.60;99.90;;;;;;5005834;28;20051;-82
2021/07/05 06:25:45;;;;;;;5.47;3.67;;;17.70;99.90;;;;;;5004744;28;20144;-82
2021/07/05 06:28:12;;;;;;;4.97;3.88;;;17.80;99.90;;;;;;5007236;28;20070;-81
2021/07/05 06:30:43;;;;;;;3.80;3.42;;;18.00;99.90;;;;;;5013749;28;20050;-82
2021/07/05 06:33:12;;;;;;;4.75;3.58;;;18.10;99.90;;;;;;5029750;28;20057;-83
2021/07/05 06:35:54;;;;;;;4.57;3.80;;;18.10;99.90;;;;;;5027196;28;20525;-82
2021/07/05 06:38:26;;;;;;;;;;;18.00;99.90;;;;;;5026425;28;20057;-81
2021/07/05 06:41:02;;;;;;;7.40;4.00;;;18.10;99.90;;;;;;5027939;28;19931;-83
2021/07/05 06:44:00;;;;;;;4.55;3.67;;;18.20;99.90;;;;;;5028399;28;20145;-82
2021/07/05 06:47:05;;;;;;;3.65;3.35;;;18.30;99.90;;;;;;5027383;28;20058;-81
2021/07/05 06:49:33;;;;;;;5.65;3.15;;;18.70;99.90;;;;;;5025951;28;20065;-82
2021/07/05 06:52:00;;;;;;;5.18;3.20;;;19.30;99.90;;;;;;5027953;28;20080;-81
2021/07/05 06:54:30;;;;;;;5.25;3.35;;;19.70;99.90;;;;;;5029109;28;20053;-80
2021/07/05 06:56:57;;;;;;;4.82;3.33;;;20.10;99.90;;;;;;5029423;28;20462;-80
2021/07/05 06:59:27;;;;;;;5.35;3.63;;;20.30;99.90;;;;;;5029615;28;20195;-82
2021/07/05 07:01:55;;;;;;;5.72;3.65;;;21.00;99.90;;;;;;5030408;28;20041;-84
2021/07/05 07:04:22;;;;;;;4.38;3.28;;;21.60;99.90;;;;;;5030089;28;20050;-83
2021/07/05 07:06:51;;;;;;;5.50;3.47;;;22.20;99.90;;;;;;5031495;28;20046;-82
2021/07/05 07:09:20;;;;;;;6.05;3.60;;;22.70;99.90;;;;;;5030204;28;20077;-81
2021/07/05 07:11:47;;;;;;;9.05;3.20;;;23.00;99.90;;;;;;5030523;28;20534;-81
2021/07/05 07:14:14;;;;;;;5.00;3.30;;;23.10;99.90;;;;;;5028550;28;20195;-81
2021/07/05 07:16:45;;;;;;;6.15;3.80;;;23.30;99.90;;;;;;5029898;28;20053;-79
2021/07/05 07:19:19;;;;;;;10.82;4.47;;;23.00;99.90;;;;;;5030971;28;20083;-80
2021/07/05 07:21:51;;;;;;;8.52;4.10;;;22.40;99.90;;;;;;5028183;28;20061;-81
2021/07/05 07:24:19;;;;;;;7.35;3.97;;;22.10;99.90;;;;;;5026173;28;20061;-82
2021/07/05 07:26:46;;;;;;;10.05;4.20;;;21.90;99.90;;;;;;5027061;28;20054;-81
2021/07/05 07:29:13;;;;;;;8.68;4.25;;;21.80;99.90;;;;;;5026496;28;20069;-81
2021/07/05 07:31:40;;;;;;;10.30;4.30;;;21.60;99.90;;;;;;5025681;28;20414;-81
2021/07/05 07:34:07;;;;;;;6.80;4.30;;;21.40;99.90;;;;;;5025246;28;20084;-81
2021/07/05 07:36:35;;;;;;;7.95;4.30;;;21.20;99.90;;;;;;5024920;28;20065;-79
2021/07/05 07:39:05;;;;;;;8.68;3.92;;;21.10;99.90;;;;;;5024601;28;20062;-81
2021/07/05 07:41:34;;;;;;;7.97;4.20;;;21.40;99.90;;;;;;5024964;28;20184;-81
2021/07/05 07:44:01;;;;;;;5.00;3.63;;;21.50;99.90;;;;;;5024298;28;20253;-81
2021/07/05 07:46:29;;;;;;;7.05;4.80;;;21.70;99.90;;;;;;5024195;28;20137;-80
2021/07/05 07:48:56;;;;;;;8.60;4.10;;;22.00;99.90;;;;;;5023203;28;20522;-80
2021/07/05 07:51:23;;;;;;;7.72;3.80;;;22.20;99.90;;;;;;5023247;28;20105;-82
2021/07/05 07:53:51;;;;;;;7.30;4.10;;;22.40;99.90;;;;;;5024452;28;20085;-81
2021/07/05 07:56:18;;;;;;;7.35;3.80;;;22.50;99.90;;;;;;5023134;28;20104;-81
2021/07/05 07:58:45;;;;;;;6.25;3.80;;;22.30;99.90;;;;;;5022350;28;20090;-80
2021/07/05 08:01:12;;;;;;;8.52;4.18;;;22.20;99.90;;;;;;5022736;28;20467;-80
2021/07/05 08:03:39;;;;;;;7.88;3.83;;;22.00;99.90;;;;;;5023856;28;20053;-80
2021/07/05 08:06:06;;;;;;;9.30;4.13;;;21.90;99.90;;;;;;5024123;28;20118;-80
2021/07/05 08:08:33;;;;;;;6.05;3.90;;;21.70;99.90;;;;;;5024101;28;20046;-80
2021/07/05 08:11:01;;;;;;;7.35;4.00;;;21.50;99.90;;;;;;5024250;28;20129;-81
2021/07/05 08:13:28;;;;;;;8.93;4.50;;;21.40;99.90;;;;;;5023897;28;20049;-80
2021/07/05 08:15:55;;;;;;;8.45;4.10;;;21.20;99.90;;;;;;5021753;28;20058;-79
2021/07/05 08:18:22;;;;;;;6.80;4.05;;;21.20;99.90;;;;;;5022220;28;20069;-81
2021/07/05 08:20:49;;;;;;;7.00;4.38;;;21.20;99.90;;;;;;5023174;28;20049;-80
2021/07/05 08:23:16;;;;;;;8.75;4.32;;;21.10;99.90;;;;;;5023627;28;20089;-80
2021/07/05 08:25:44;;;;;;;8.75;4.57;;;21.00;99.90;;;;;;5023929;28;20109;-81
2021/07/05 08:28:13;;;;;;;11.38;4.47;;;21.00;99.90;;;;;;5023972;28;20133;-80
2021/07/05 08:30:40;;;;;;;7.97;4.45;;;21.00;99.90;;;;;;5024166;28;20084;-81
2021/07/05 08:33:08;;;;;;;10.40;4.53;;;21.10;99.90;;;;;;5024790;28;20049;-80
2021/07/05 08:35:36;;;;;;;10.63;4.35;;;21.10;99.90;;;;;;5023154;28;20132;-81
2021/07/05 08:38:03;;;;;;;8.77;4.55;;;21.10;99.90;;;;;;5025343;28;20073;-81
2021/07/05 08:40:30;;;;;;;7.10;4.25;;;21.20;99.90;;;;;;5024227;28;20113;-81
2021/07/05 08:43:00;;;;;;;6.93;4.53;;;21.30;99.90;;;;;;5024264;28;20073;-79
2021/07/05 08:45:28;;;;;;;10.82;4.53;;;21.40;99.90;;;;;;5023575;28;20049;-80
2021/07/05 08:47:56;;;;;;;11.20;4.13;;;21.40;99.90;;;;;;5024710;28;20050;-80
2021/07/05 08:50:27;;;;;;;9.57;4.43;;;21.40;99.90;;;;;;5025890;28;20053;-78
2021/07/05 08:52:54;;;;;;;10.70;4.28;;;21.30;99.90;;;;;;5025160;28;20136;-79
2021/07/05 08:55:23;;;;;;;8.13;4.05;;;21.30;99.90;;;;;;5024045;28;20081;-80
2021/07/05 08:57:52;;;;;;;8.02;3.95;;;21.40;99.90;;;;;;5024120;28;20081;-80
2021/07/05 09:00:22;;;;;;;10.18;4.30;;;21.40;99.90;;;;;;5024487;28;20060;-80
2021/07/05 09:02:51;;;;;;;7.60;3.85;;;21.40;99.90;;;;;;5025402;28;20148;-80
2021/07/05 09:05:18;;;;;;;8.55;4.03;;;21.50;99.90;;;;;;5026246;28;20077;-80
2021/07/05 09:08:01;;;;;;;5.65;3.47;;;21.60;99.90;;;;;;5025924;28;20119;-81
2021/07/05 09:10:29;;;;;;;7.50;3.90;;;21.60;99.90;;;;;;5023878;28;20056;-80
2021/07/05 09:13:11;;;;;;;7.05;3.70;;;21.70;99.90;;;;;;5022710;28;20049;-79
2021/07/05 09:15:43;;;;;;;7.43;3.70;;;22.00;99.90;;;;;;5023374;28;20081;-79
2021/07/05 09:18:36;;;;;;;6.57;3.67;;;22.20;99.90;;;;;;5023737;28;20126;-80
2021/07/05 09:21:21;;;;;;;7.10;3.65;;;22.40;99.90;;;;;;5024267;28;20115;-80
2021/07/05 09:24:00;;;;;;;7.80;3.90;;;22.60;99.90;;;;;;5021741;28;20058;-79
2021/07/05 09:26:30;;;;;;;7.60;3.70;;;22.70;99.90;;;;;;5023210;28;20076;-80
2021/07/05 09:28:59;;;;;;;8.93;3.75;;;22.80;99.90;;;;;;5023778;28;20049;-80
2021/07/05 09:31:35;;;;;;;8.05;3.90;;;22.90;99.90;;;;;;5024878;28;20042;-80
2021/07/05 09:34:04;;;;;;;5.75;3.42;;;22.90;99.90;;;;;;5025005;28;20147;-80
2021/07/05 09:36:31;;;;;;;8.93;3.60;;;22.80;99.90;;;;;;5024807;28;20053;-80
2021/07/05 09:39:09;;;;;;;8.32;3.22;;;22.70;99.90;;;;;;5023366;28;20054;-80
2021/07/05 09:41:36;;;;;;;8.25;3.72;;;22.90;99.90;;;;;;5023911;28;20100;-80
2021/07/05 09:44:09;;;;;;;11.48;3.70;;;22.90;99.90;;;;;;5023349;28;20054;-80
2021/07/05 09:46:40;;;;;;;12.18;3.58;;;23.00;99.90;;;;;;5024636;28;20085;-79
2021/07/05 09:49:21;;;;;;;9.05;3.60;;;23.10;99.90;;;;;;5023730;28;20096;-80
2021/07/05 09:52:15;;;;;;;8.77;3.80;;;23.20;99.90;;;;;;5023176;28;20068;-80
2021/07/05 09:57:25;;;;;;;6.25;3.58;;;23.50;99.90;;;;;;5021595;23;20050;-77
2021/07/05 09:59:53;;;;;;;5.78;3.13;;;23.40;99.90;;;;;;4996918;28;20054;-78
2021/07/05 10:02:20;;;;;;;6.28;4.10;;;23.20;99.90;;;;;;4995633;28;20086;-75
2021/07/05 10:04:51;;;;;;;6.32;3.28;;;23.40;99.90;;;;;;4995207;28;20043;-76
2021/07/05 10:07:18;;;;;;;5.75;3.38;;;23.20;99.90;;;;;;4996361;28;20409;-76
2021/07/05 10:09:48;;;;;;;6.97;4.07;;;23.20;99.90;;;;;;4994980;28;20059;-77
2021/07/05 10:12:20;;;;;;;12.55;5.05;;;23.20;99.90;;;;;;4995593;28;20562;-78
2021/07/05 10:15:02;;;;;;;8.70;3.40;;;23.10;99.90;;;;;;4995377;28;20574;-78
2021/07/05 10:17:30;;;;;;;5.68;2.92;;;23.20;99.90;;;;;;4996246;28;20054;-78
2021/07/05 10:20:00;;;;;;;5.28;2.78;;;23.10;99.90;;;;;;4995335;28;20092;-78
2021/07/05 10:22:28;;;;;;;9.88;3.60;;;23.00;99.90;;;;;;4995395;28;20129;-78
2021/07/05 10:24:56;;;;;;;4.68;2.95;;;23.10;99.90;;;;;;4995051;28;20100;-76
2021/07/05 10:27:23;;;;;;;5.05;2.95;;;23.30;99.90;;;;;;4996014;28;20137;-80
2021/07/05 10:29:51;;;;;;;4.65;3.08;;;23.30;99.90;;;;;;4997343;28;20110;-78
2021/07/05 10:32:19;;;;;;;5.10;3.05;;;23.30;99.90;;;;;;4996544;28;20054;-78
2021/07/05 10:34:51;;;;;;;7.95;3.50;;;23.10;99.90;;;;;;4995972;28;20077;-78
2021/07/05 10:37:30;;;;;;;;;;;23.00;99.90;;;;;;4996648;28;20050;-78
2021/07/05 10:39:58;;;;;;;9.23;4.13;;;23.20;99.90;;;;;;4995899;28;20024;-78
2021/07/05 10:42:30;;;;;;;6.65;3.63;;;23.40;99.90;;;;;;4996800;28;20141;-77
2021/07/05 10:44:57;;;;;;;6.47;3.28;;;23.60;99.90;;;;;;4994679;28;20090;-77
2021/07/05 10:47:47;;;;;;;5.85;3.20;;;23.40;99.90;;;;;;4995660;28;20090;-81
2021/07/05 10:50:50;;;;;;;6.20;3.20;;;23.60;99.90;;;;;;4995589;28;20046;-79
2021/07/05 10:53:40;;;;;;;6.28;3.17;;;23.80;99.90;;;;;;4995448;28;20078;-77
2021/07/05 10:56:43;;;;;;;6.90;3.50;;;23.80;99.90;;;;;;4995110;28;20078;-79
2021/07/05 10:59:39;;;;;;;6.57;3.00;;;24.00;99.90;;;;;;4991135;28;20050;-78
2021/07/05 11:02:32;;;;;;;7.03;3.20;;;24.20;99.90;;;;;;4995881;28;20459;-79
2021/07/05 11:05:00;;;;;;;5.60;3.70;;;24.20;99.90;;;;;;4996407;28;20064;-79
2021/07/05 11:07:43;;;;;;;4.15;3.25;;;24.10;99.90;;;;;;4995954;28;20593;-78
2021/07/05 11:10:19;;;;;;;3.83;2.85;;;24.20;99.90;;;;;;4996501;28;20100;-78
2021/07/05 11:12:58;;;;;;;4.53;3.00;;;24.10;99.90;;;;;;4996648;28;20054;-78
2021/07/05 11:16:00;;;;;;;3.00;2.70;;;24.20;99.90;;;;;;4996010;28;20417;-78
2021/07/05 11:19:08;;;;;;;5.80;3.30;;;24.50;99.90;;;;;;4935222;29;20059;-78
2021/07/05 11:21:57;;;;;;;4.10;2.70;;;24.30;99.90;;;;;;4935562;29;20579;-78
2021/07/05 11:24:35;;;;;;;9.52;3.70;;;23.90;99.90;;;;;;4987850;28;20050;-80
2021/07/05 11:27:54;;;;;;;5.65;2.80;;;23.80;99.90;;;;;;4995376;28;20105;-78
2021/07/05 11:30:37;;;;;;;4.13;2.58;;;24.00;99.90;;;;;;4997181;28;20061;-78
2021/07/05 11:33:05;;;;;;;;;;;24.10;99.90;;;;;;4998756;28;20065;-78
2021/07/05 11:35:48;;;;;;;4.32;2.90;;;24.10;99.90;;;;;;5000648;28;20000;-80
2021/07/05 11:38:25;;;;;;;;;;;24.20;99.90;;;;;;5002370;28;20400;-79
2021/07/05 11:40:54;;;;;;;4.70;3.15;;;24.20;99.90;;;;;;5000866;28;20013;-80
2021/07/05 11:43:54;;;;;;;7.57;2.70;;;24.20;99.90;;;;;;4998800;28;20054;-79
2021/07/05 11:46:51;;;;;;;5.38;2.88;;;24.20;99.90;;;;;;5001510;28;20418;-79
2021/07/05 11:49:26;;;;;;;6.05;2.42;;;23.80;99.90;;;;;;5001956;28;20249;-80
2021/07/05 11:51:56;;;;;;;4.65;2.53;;;23.70;99.90;;;;;;5001845;28;20054;-82
2021/07/05 11:54:26;;;;;;;4.20;2.78;;;23.60;99.90;;;;;;4999572;28;20050;-79
2021/07/05 11:56:55;;;;;;;4.63;2.95;;;23.60;99.90;;;;;;5000264;28;20047;-79
2021/07/05 11:59:23;;;;;;;4.57;2.80;;;23.70;99.90;;;;;;5000945;28;20459;-80
2021/07/05 12:02:09;;;;;;;5.25;2.58;;;23.70;99.90;;;;;;5001725;28;20086;-81
2021/07/05 12:04:38;;;;;;;5.18;3.08;;;23.50;99.90;;;;;;4993958;28;20490;-80
2021/07/05 12:07:07;;;;;;;7.13;3.90;;;23.20;99.90;;;;;;4993825;28;20050;-80
2021/07/05 12:09:35;;;;;;;6.45;3.10;;;23.20;99.90;;;;;;4994705;28;20085;-78
2021/07/05 12:12:10;;;;;;;5.68;3.10;;;23.20;99.90;;;;;;4998108;28;20137;-78
2021/07/05 12:14:40;;;;;;;4.45;2.78;;;23.20;99.90;;;;;;4996192;28;20138;-80
2021/07/05 12:17:09;;;;;;;3.08;2.50;;;23.00;99.90;;;;;;4997222;28;20050;-79
2021/07/05 12:19:40;;;;;;;3.80;2.90;;;23.10;99.90;;;;;;4995970;28;20062;-79
2021/07/05 12:22:09;;;;;;;4.75;3.03;;;23.20;99.90;;;;;;4997062;28;20348;-81
2021/07/05 12:24:38;;;;;;;4.47;2.92;;;23.50;99.90;;;;;;5001581;28;20491;-81
2021/07/05 12:27:08;;;;;;;3.75;2.67;;;23.70;99.90;;;;;;5000195;28;20054;-78
2021/07/05 12:29:38;;;;;;;4.15;2.72;;;23.70;99.90;;;;;;5000633;28;20046;-79
2021/07/05 12:32:17;;;;;;;3.70;2.50;;;23.70;99.90;;;;;;5000637;28;20054;-81
2021/07/05 12:34:52;;;;;;;4.72;2.90;;;23.70;99.90;;;;;;4998998;28;20058;-81
2021/07/05 12:37:32;;;;;;;6.50;2.90;;;23.60;99.90;;;;;;4997048;28;20058;-80
2021/07/05 12:40:04;;;;;;;3.05;2.75;;;23.70;99.90;;;;;;4994191;28;20474;-79
2021/07/05 12:42:34;;;;;;;3.28;2.60;;;23.60;99.90;;;;;;4994301;28;20050;-79
2021/07/05 12:45:05;;;;;;;5.07;2.55;;;23.40;99.90;;;;;;4994290;28;20141;-79
2021/07/05 12:47:44;;;;;;;4.45;3.10;;;23.30;99.90;;;;;;4995296;28;20057;-80
2021/07/05 12:50:14;;;;;;;4.28;3.10;;;23.10;99.90;;;;;;4994885;28;20475;-78
2021/07/05 12:53:16;;;;;;;6.57;3.22;;;22.90;99.90;;;;;;4998607;28;20050;-80
2021/07/05 12:56:07;;;;;;;3.47;2.60;;;22.70;99.90;;;;;;4996960;28;20545;-79
2021/07/05 12:58:46;;;;;;;7.43;2.53;;;22.60;99.90;;;;;;4994592;28;20050;-80
2021/07/05 13:01:25;;;;;;;2.85;2.42;;;22.50;99.90;;;;;;4995237;28;20061;-79
2021/07/05 13:03:59;;;;;;;5.28;2.80;;;22.30;99.90;;;;;;4995150;28;20060;-79
2021/07/05 13:06:26;;;;;;;5.38;2.75;;;22.20;99.90;;;;;;4995498;28;20133;-79
2021/07/05 13:08:58;;;;;;;3.75;2.40;;;22.20;99.90;;;;;;4995269;28;20054;-78